Accueil
METAR-TAF:

METAR-TAF

Aéroports :

Aéroport international Modibo Keïta

Bamako, Mali

latitude: 12-32N, longitude: 007-57W, altitude: 380 m

Observation

Le bulletin a été fait il y a 1 heure et 14 minutes, à 18:00 UTC
Vent 4 kt de nord/nord-est
Température 34°C
Humidité 39%
Pression 1012 hPa
Visibilité 10 km ou plus
Quelques nuages à une hauteur de 2000 ft

METAR: GABS 221800Z 02004KT 9999 FEW020 34/18 Q1012 NOSIG

Heure: 19:14 (19:14 UTC)

Prévision

Le bulletin a été fait il y a 1 heure et 48 minutes, à 17:26 UTC
Prévision valable du 22 à 18 UTC au 23 à 24 UTC
Vent 6 kt de est
Visibilité 10 km ou plus
Quelques nuages à une hauteur de 3000 ft
Probabilité 40% :
Temporairement
du 23 à 17 UTC au 23 à 23 UTC
Vent 15 kt de direction variable
Nuages épars à une hauteur de 3000 ft
Quelques nuages à une hauteur de 4000 ft, Cumulonimbus.
orage

TAF: GABS 221726Z 2218/2324 10006KT 9999 FEW030 PROB40 TEMPO 2317/2323 VRB15KT TS SCT030 FEW040CB

Observations et prévisions météorologiques de plus de 4000 aéroports (messages METAR et TAF).

Les stations disponibles sont représentées par des disques jaunes et rouges sur la carte.

Passer la souris dessus pour voir le nom de la station.

Cliquer dessus pour voir les observations et prévisions météorologiques.

Pour changer de carte: cliquez sur les boutons verts avec une croix noire pour zoomer, sur le bouton vert avec un tiret pour effectuer un zoom arrière, ou sur les flèches vertes pour les cartes adjacentes.


METAR-TAF: